Time;durP1;ratioP1;P1;durP2;ratioP2;P2;SDS_P1;SDS_P2;PMS_P1;PMS_P2;Temp;Humidity;BMP_temperature;BMP_pressure;BME280_temperature;BME280_humidity;BME280_pressure;Samples;Min_cycle;Max_cycle;Signal;HPM_P1;HPM_P2
2021/10/30 00:01:59;;;;;;;5.55;3.55;;;;;;;18.27;46.62;101968.50;143726;620;46006;-67
2021/10/30 00:04:36;;;;;;;7.37;3.97;;;;;;;18.24;46.90;101960.78;143726;649;46010;-67
2021/10/30 00:07:14;;;;;;;4.32;3.35;;;;;;;18.17;47.03;101955.41;143724;580;46010;-67
2021/10/30 00:09:49;;;;;;;6.15;3.35;;;;;;;18.14;46.94;101958.56;143724;622;46008;-67
2021/10/30 00:12:26;;;;;;;5.12;3.22;;;;;;;18.15;47.22;101969.19;143726;601;46006;-67
2021/10/30 00:15:08;;;;;;;5.53;4.18;;;;;;;18.15;47.16;101962.94;143726;601;46010;-65
2021/10/30 00:17:49;;;;;;;5.37;3.62;;;;;;;18.14;47.13;101947.69;143724;586;46010;-65
2021/10/30 00:20:26;;;;;;;4.37;3.72;;;;;;;18.18;46.85;101960.59;143723;572;47004;-66
2021/10/30 00:23:06;;;;;;;6.70;3.95;;;;;;;18.17;46.88;101948.06;143724;618;46014;-66
2021/10/30 00:25:41;;;;;;;11.40;7.03;;;;;;;18.10;46.94;101946.44;143726;628;47000;-67
2021/10/30 00:28:18;;;;;;;19.77;12.40;;;;;;;18.14;46.76;101940.34;143725;620;46010;-67
2021/10/30 00:30:55;;;;;;;5.72;5.15;;;;;;;18.14;46.45;101939.53;143724;591;47004;-66
2021/10/30 00:33:33;;;;;;;8.70;4.12;;;;;;;18.13;46.73;101937.84;143724;583;46006;-67
2021/10/30 00:36:13;;;;;;;9.30;4.80;;;;;;;18.10;46.85;101936.38;143724;603;46004;-66
2021/10/30 00:38:49;;;;;;;11.15;4.85;;;;;;;18.09;46.90;101937.44;143727;593;46008;-66
2021/10/30 00:41:25;;;;;;;6.87;4.47;;;;;;;18.07;46.78;101931.41;143723;572;47004;-66
2021/10/30 00:44:10;;;;;;;8.00;3.97;;;;;;;18.05;46.59;101932.66;143723;580;47002;-66
2021/10/30 00:46:48;;;;;;;7.72;4.53;;;;;;;18.02;46.77;101929.31;143726;599;47006;-65
2021/10/30 00:49:35;;;;;;;10.05;4.93;;;;;;;18.07;46.62;101931.41;143726;569;46010;-67
2021/10/30 00:52:17;;;;;;;6.57;4.28;;;;;;;18.08;46.60;101929.50;143726;591;46002;-66
2021/10/30 00:54:56;;;;;;;6.50;4.82;;;;;;;18.15;46.25;101954.78;143723;573;47006;-66
2021/10/30 00:57:35;;;;;;;7.80;5.12;;;;;;;18.23;46.03;101931.94;143726;636;46010;-68
2021/10/30 01:00:12;;;;;;;8.43;6.15;;;;;;;18.30;46.20;101944.44;143721;640;46010;-66
2021/10/30 01:02:52;;;;;;;6.35;4.90;;;;;;;18.35;46.13;101935.59;143723;573;47005;-65
2021/10/30 01:05:31;;;;;;;14.52;10.00;;;;;;;18.39;45.89;101930.53;143725;588;46006;-67
2021/10/30 01:08:08;;;;;;;11.02;5.82;;;;;;;18.40;45.59;101932.22;143726;595;47000;-67
2021/10/30 01:10:46;;;;;;;8.50;4.62;;;;;;;18.35;46.26;101932.88;143725;567;46008;-67
2021/10/30 01:13:23;;;;;;;7.60;5.32;;;;;;;18.38;46.27;101927.00;143724;595;46008;-66
2021/10/30 01:15:59;;;;;;;7.68;4.90;;;;;;;18.42;46.30;101930.94;143726;567;46018;-67
2021/10/30 01:18:38;;;;;;;8.32;4.87;;;;;;;18.44;46.36;101936.97;143727;613;46010;-65
2021/10/30 01:21:18;;;;;;;5.80;4.90;;;;;;;18.44;45.83;101938.87;143723;578;46010;-65
2021/10/30 01:23:54;;;;;;;6.35;5.45;;;;;;;18.49;43.33;101929.00;143724;568;46004;-66
2021/10/30 01:26:31;;;;;;;7.28;5.30;;;;;;;18.53;41.19;101923.97;143721;597;47006;-67
2021/10/30 01:29:10;;;;;;;8.65;4.60;;;;;;;18.58;41.77;101918.66;143726;593;46006;-67
2021/10/30 01:31:49;;;;;;;10.10;4.60;;;;;;;18.52;44.35;101919.56;143721;578;47004;-66
2021/10/30 01:34:27;;;;;;;9.07;5.80;;;;;;;18.44;45.14;101923.38;143725;567;46008;-68
2021/10/30 01:37:05;;;;;;;14.63;6.55;;;;;;;18.42;45.14;101928.22;143725;575;47006;-67
2021/10/30 01:39:41;;;;;;;7.80;5.35;;;;;;;18.45;45.06;101924.22;143728;579;47006;-69
2021/10/30 01:42:18;;;;;;;10.20;5.68;;;;;;;18.37;44.98;101927.19;143724;601;46008;-66
2021/10/30 01:44:57;;;;;;;8.80;6.65;;;;;;;18.27;45.48;101924.97;143724;577;46008;-66
2021/10/30 01:47:34;;;;;;;11.05;5.37;;;;;;;18.24;45.67;101922.72;143720;583;47006;-68
2021/10/30 01:50:14;;;;;;;8.20;5.25;;;;;;;18.20;45.42;101922.31;143728;615;46004;-66
2021/10/30 01:52:52;;;;;;;7.32;4.97;;;;;;;18.20;45.27;101932.38;143724;625;46010;-66
2021/10/30 01:55:28;;;;;;;10.50;5.53;;;;;;;18.16;45.09;101932.81;143726;628;46009;-67
2021/10/30 01:58:05;;;;;;;6.87;5.30;;;;;;;18.18;45.17;101933.41;143723;568;47006;-67
2021/10/30 02:00:41;;;;;;;9.95;5.72;;;;;;;18.23;44.93;101934.66;143730;610;46011;-67
2021/10/30 02:03:17;;;;;;;11.10;4.75;;;;;;;18.27;43.61;101939.41;143725;582;46013;-68
2021/10/30 02:05:54;;;;;;;9.50;4.85;;;;;;;18.27;44.45;101935.84;143726;572;46004;-67
2021/10/30 02:08:33;;;;;;;8.27;6.10;;;;;;;18.22;45.17;101935.69;143724;567;47007;-66
2021/10/30 02:11:09;;;;;;;7.50;5.75;;;;;;;18.15;45.24;101935.75;143725;596;47000;-68
2021/10/30 02:13:45;;;;;;;9.02;5.32;;;;;;;18.11;45.50;101940.78;143724;600;46010;-66
2021/10/30 02:16:21;;;;;;;8.10;5.80;;;;;;;18.09;45.07;101934.72;143724;658;47005;-67
2021/10/30 02:18:57;;;;;;;7.12;6.05;;;;;;;18.06;45.07;101937.06;143724;595;46006;-66
2021/10/30 02:21:37;;;;;;;22.85;19.50;;;;;;;18.05;45.39;101940.81;143726;597;46010;-67
2021/10/30 02:24:13;;;;;;;31.55;25.08;;;;;;;18.06;45.21;101932.47;143724;654;46010;-67
2021/10/30 02:26:49;;;;;;;12.00;8.63;;;;;;;18.04;45.06;101929.13;143725;580;46004;-68
2021/10/30 02:29:27;;;;;;;10.45;6.57;;;;;;;18.00;44.82;101928.72;143726;570;47006;-67
2021/10/30 02:32:03;;;;;;;9.68;5.70;;;;;;;18.00;44.89;101927.88;143727;678;47006;-67
2021/10/30 02:34:39;;;;;;;8.38;6.05;;;;;;;17.98;44.97;101935.44;143724;596;46010;-67
2021/10/30 02:37:18;;;;;;;8.40;5.87;;;;;;;17.95;45.12;101928.53;143723;646;47004;-67
2021/10/30 02:39:57;;;;;;;8.70;5.50;;;;;;;17.95;45.13;101928.53;143727;577;46010;-66
2021/10/30 02:42:36;;;;;;;8.52;5.57;;;;;;;17.92;45.20;101926.22;143727;586;46010;-67
2021/10/30 02:45:14;;;;;;;8.32;5.97;;;;;;;17.92;45.26;101922.66;143725;580;46010;-67
2021/10/30 02:47:51;;;;;;;7.28;4.93;;;;;;;17.95;45.33;101923.09;143723;594;46004;-67
2021/10/30 02:50:29;;;;;;;8.80;5.72;;;;;;;18.01;45.30;101927.66;143726;572;46006;-68
2021/10/30 02:53:05;;;;;;;12.93;5.75;;;;;;;17.99;45.20;101924.34;143728;574;46025;-67
2021/10/30 02:55:44;;;;;;;9.95;5.30;;;;;;;18.00;45.29;101919.72;143726;604;46008;-67
2021/10/30 02:58:20;;;;;;;7.37;5.32;;;;;;;18.04;45.39;101926.41;143724;581;47002;-69
2021/10/30 03:00:56;;;;;;;11.55;5.60;;;;;;;18.04;45.34;101934.56;143718;618;47002;-68
2021/10/30 03:03:34;;;;;;;7.45;4.65;;;;;;;18.05;45.37;101928.06;143727;589;47000;-66
2021/10/30 03:06:10;;;;;;;6.50;4.95;;;;;;;18.09;45.00;101931.19;143725;597;47008;-68
2021/10/30 03:08:47;;;;;;;9.45;5.35;;;;;;;18.13;45.21;101924.25;143724;573;47004;-67
2021/10/30 03:11:26;;;;;;;6.32;5.10;;;;;;;18.13;45.41;101918.81;143724;572;47004;-68
2021/10/30 03:14:05;;;;;;;7.40;5.40;;;;;;;18.10;45.41;101922.78;143728;634;47000;-67
2021/10/30 03:16:41;;;;;;;9.48;4.85;;;;;;;18.10;45.44;101932.84;143725;579;47002;-68
2021/10/30 03:19:21;;;;;;;6.90;5.43;;;;;;;18.08;45.49;101918.63;143724;589;47004;-67
2021/10/30 03:21:59;;;;;;;12.30;5.57;;;;;;;18.05;45.39;101929.94;143724;572;47004;-68
2021/10/30 03:24:35;;;;;;;9.85;5.07;;;;;;;18.05;45.56;101924.50;143727;567;47000;-67
2021/10/30 03:27:09;;;;;;;8.32;4.75;;;;;;;18.05;45.70;101916.34;143726;570;46010;-67
2021/10/30 03:29:44;;;;;;;7.07;4.87;;;;;;;18.11;45.37;101924.47;143728;612;46004;-66
2021/10/30 03:32:21;;;;;;;7.03;4.87;;;;;;;18.17;44.93;101926.31;143728;575;46007;-68
2021/10/30 03:34:59;;;;;;;7.15;4.57;;;;;;;18.23;44.37;101930.03;143729;603;47000;-67
2021/10/30 03:37:35;;;;;;;7.40;4.68;;;;;;;18.26;44.54;101928.78;143725;582;47002;-69
2021/10/30 03:40:10;;;;;;;8.93;6.00;;;;;;;18.24;45.30;101931.69;143724;586;47004;-67
2021/10/30 03:42:47;;;;;;;9.35;5.60;;;;;;;18.23;45.54;101929.22;143729;626;46002;-68
2021/10/30 03:45:23;;;;;;;9.48;5.07;;;;;;;18.23;45.54;101931.94;143728;581;47000;-67
2021/10/30 03:48:02;;;;;;;6.97;4.70;;;;;;;18.27;45.47;101922.25;143725;647;46008;-68
2021/10/30 03:50:39;;;;;;;8.40;4.72;;;;;;;18.29;45.05;101926.44;143726;580;46004;-68
2021/10/30 03:53:19;;;;;;;6.72;5.12;;;;;;;18.31;44.78;101921.63;143727;596;46007;-67
2021/10/30 03:56:03;;;;;;;9.13;7.60;;;;;;;18.36;45.16;101929.09;143728;636;47000;-67
2021/10/30 03:58:43;;;;;;;32.08;25.65;;;;;;;18.29;45.33;101926.44;143725;632;46010;-68
2021/10/30 04:01:29;;;;;;;10.30;8.30;;;;;;;18.29;45.64;101923.72;143724;650;47004;-70
2021/10/30 04:04:05;;;;;;;8.48;4.60;;;;;;;18.28;45.93;101927.50;143727;612;46006;-67
2021/10/30 04:06:43;;;;;;;12.77;5.22;;;;;;;18.27;45.82;101914.09;143730;566;46006;-68
2021/10/30 04:09:19;;;;;;;8.48;5.00;;;;;;;18.23;46.14;101923.78;143726;592;46010;-68
2021/10/30 04:11:59;;;;;;;7.20;4.15;;;;;;;18.20;46.20;101916.06;143724;570;47004;-67
2021/10/30 04:14:36;;;;;;;6.90;4.90;;;;;;;18.25;46.19;101921.66;143726;610;46007;-69
2021/10/30 04:17:12;;;;;;;9.82;4.37;;;;;;;18.22;46.03;101917.47;143728;640;47000;-67
2021/10/30 04:19:50;;;;;;;5.50;4.40;;;;;;;18.25;46.28;101930.66;143726;603;46010;-67
2021/10/30 04:22:26;;;;;;;7.37;4.53;;;;;;;18.26;46.21;101926.06;143727;598;46008;-67
2021/10/30 04:25:03;;;;;;;10.75;4.20;;;;;;;18.29;46.23;101931.03;143727;605;46006;-67
2021/10/30 04:27:41;;;;;;;6.97;4.57;;;;;;;18.30;46.51;101928.09;143730;587;46006;-69
2021/10/30 04:30:17;;;;;;;7.10;4.22;;;;;;;18.24;46.73;101934.41;143726;597;46010;-69
2021/10/30 04:32:55;;;;;;;6.47;4.37;;;;;;;18.23;46.75;101930.03;143727;574;46008;-67
2021/10/30 04:35:32;;;;;;;9.60;4.60;;;;;;;18.24;46.77;101923.53;143724;579;47006;-70
2021/10/30 04:38:10;;;;;;;10.18;4.93;;;;;;;18.29;47.00;101922.88;143728;582;47000;-68
2021/10/30 04:40:47;;;;;;;10.23;5.57;;;;;;;18.25;47.22;101927.94;143723;578;46922;-67
2021/10/30 04:43:26;;;;;;;8.43;5.65;;;;;;;18.22;47.50;101919.38;143727;600;46004;-67
2021/10/30 04:46:08;;;;;;;9.40;4.70;;;;;;;18.17;47.74;101929.03;143725;616;46007;-68
2021/10/30 04:48:44;;;;;;;12.13;4.68;;;;;;;18.20;47.92;101933.19;143727;635;47000;-67
2021/10/30 04:51:20;;;;;;;8.93;4.47;;;;;;;18.25;47.90;101938.81;143726;646;46010;-68
2021/10/30 04:53:59;;;;;;;4.82;4.10;;;;;;;18.27;47.30;101927.69;143726;590;46008;-69
2021/10/30 04:56:36;;;;;;;5.37;3.95;;;;;;;18.33;46.96;101932.25;143725;626;46006;-67
2021/10/30 04:59:13;;;;;;;5.68;4.78;;;;;;;18.38;46.57;101931.59;143730;602;46019;-67
2021/10/30 05:01:48;;;;;;;8.18;4.82;;;;;;;18.37;47.41;101932.66;143725;615;47002;-68
2021/10/30 05:04:25;;;;;;;5.82;4.87;;;;;;;18.39;47.16;101927.81;143727;593;46004;-69
2021/10/30 05:07:04;;;;;;;7.20;4.80;;;;;;;18.33;47.55;101924.94;143724;620;47007;-67
2021/10/30 05:09:45;;;;;;;10.82;5.07;;;;;;;18.26;47.47;101934.22;143728;638;46010;-67
2021/10/30 05:12:22;;;;;;;11.12;5.35;;;;;;;18.28;47.40;101934.81;143726;567;46010;-67
2021/10/30 05:15:00;;;;;;;9.00;5.20;;;;;;;18.29;46.65;101931.03;143726;577;46005;-70
2021/10/30 05:17:37;;;;;;;6.62;4.15;;;;;;;18.35;46.12;101929.34;143721;605;48004;-67
2021/10/30 05:20:16;;;;;;;9.43;4.50;;;;;;;18.43;45.84;101935.34;143727;584;47000;-68
2021/10/30 05:22:53;;;;;;;9.57;4.40;;;;;;;18.51;45.95;101925.22;143723;592;46010;-68
2021/10/30 05:25:32;;;;;;;6.47;4.72;;;;;;;18.54;45.62;101928.31;143725;600;47004;-67
2021/10/30 05:28:09;;;;;;;13.35;4.95;;;;;;;18.57;45.83;101930.59;143728;609;46920;-66
2021/10/30 05:30:48;;;;;;;8.85;4.78;;;;;;;18.60;45.80;101937.50;143729;626;47002;-68
2021/10/30 05:33:25;;;;;;;11.38;5.05;;;;;;;18.63;45.74;101929.72;143727;584;46010;-69
2021/10/30 05:36:04;;;;;;;8.55;4.55;;;;;;;18.66;45.80;101930.31;143726;573;46006;-68
2021/10/30 05:38:50;;;;;;;7.37;4.53;;;;;;;18.69;45.62;101940.78;143726;661;46017;-67
2021/10/30 05:41:39;;;;;;;7.22;5.03;;;;;;;18.69;45.78;101938.87;143728;579;46010;-69
2021/10/30 05:44:14;;;;;;;10.00;4.93;;;;;;;18.72;45.84;101948.47;143727;625;46010;-67
2021/10/30 05:46:54;;;;;;;7.45;4.85;;;;;;;18.73;45.59;101942.81;143726;584;46006;-70
2021/10/30 05:49:34;;;;;;;9.02;5.65;;;;;;;18.70;45.25;101940.53;143727;579;46008;-68
2021/10/30 05:52:11;;;;;;;11.90;5.90;;;;;;;18.72;44.89;101941.16;143727;573;47002;-67
2021/10/30 05:54:48;;;;;;;7.70;4.95;;;;;;;18.75;44.96;101945.31;143726;595;46012;-69
2021/10/30 05:57:28;;;;;;;8.02;4.70;;;;;;;18.72;45.10;101951.19;143727;649;46006;-68
2021/10/30 06:00:03;;;;;;;7.00;4.57;;;;;;;18.76;45.45;101946.97;143727;626;46009;-68
2021/10/30 06:02:40;;;;;;;6.72;5.43;;;;;;;18.73;45.35;101941.97;143729;671;47002;-70
2021/10/30 06:05:20;;;;;;;9.10;5.53;;;;;;;18.75;45.43;101948.03;143725;592;47004;-68
2021/10/30 06:07:57;;;;;;;8.82;5.00;;;;;;;18.79;45.30;101941.09;143726;585;47006;-67
2021/10/30 06:10:36;;;;;;;8.20;4.55;;;;;;;18.79;45.37;101949.25;143725;586;47006;-68
2021/10/30 06:13:10;;;;;;;6.68;5.00;;;;;;;18.75;45.31;101946.16;143725;634;47002;-68
2021/10/30 06:15:47;;;;;;;5.43;4.43;;;;;;;18.74;45.68;101951.81;143725;626;46013;-66
2021/10/30 06:18:25;;;;;;;9.05;5.50;;;;;;;18.76;45.49;101953.25;143726;579;47006;-69
2021/10/30 06:21:02;;;;;;;8.27;4.75;;;;;;;18.81;45.19;101958.03;143728;582;46008;-68
2021/10/30 06:23:37;;;;;;;6.15;4.30;;;;;;;18.85;45.65;101958.41;143730;592;46007;-68
2021/10/30 06:26:17;;;;;;;7.55;4.68;;;;;;;18.79;45.86;101962.84;143724;607;46012;-67
2021/10/30 06:28:57;;;;;;;12.77;4.97;;;;;;;18.79;46.13;101960.13;143727;573;46006;-68
2021/10/30 06:31:33;;;;;;;7.90;4.80;;;;;;;18.82;45.95;101967.88;143726;587;46008;-67
2021/10/30 06:34:12;;;;;;;7.32;4.20;;;;;;;18.83;45.34;101972.25;143729;596;46010;-69
2021/10/30 06:36:47;;;;;;;7.75;4.95;;;;;;;18.86;45.27;101974.53;143726;594;46011;-67
2021/10/30 06:39:24;;;;;;;12.60;8.38;;;;;;;18.88;45.38;101969.69;143726;579;46006;-68
2021/10/30 06:42:04;;;;;;;16.45;11.02;;;;;;;18.87;45.43;101978.06;143727;573;46006;-69
2021/10/30 06:44:40;;;;;;;12.23;9.23;;;;;;;18.86;45.83;101981.84;143727;595;47002;-68
2021/10/30 06:47:18;;;;;;;17.20;10.63;;;;;;;18.86;46.51;101979.13;143723;579;47008;-67
2021/10/30 06:49:57;;;;;;;16.95;10.88;;;;;;;18.84;46.69;101978.50;143726;609;46006;-68
2021/10/30 06:52:49;;;;;;;17.77;11.70;;;;;;;18.81;46.40;101977.09;143726;610;46008;-67
2021/10/30 06:55:26;;;;;;;16.17;11.05;;;;;;;18.80;46.12;101978.13;143727;642;47008;-66
2021/10/30 06:58:03;;;;;;;16.08;10.43;;;;;;;18.81;45.84;101978.97;143726;613;46012;-67
2021/10/30 07:00:43;;;;;;;21.05;10.55;;;;;;;18.83;45.79;101977.69;143726;595;46010;-67
2021/10/30 07:03:20;;;;;;;15.70;10.45;;;;;;;18.84;46.07;101979.37;143727;567;46008;-66
2021/10/30 07:05:56;;;;;;;18.62;11.00;;;;;;;18.85;46.42;101986.47;143727;647;47002;-68
2021/10/30 07:08:36;;;;;;;22.85;10.13;;;;;;;18.86;45.47;101993.59;143727;586;46008;-68
2021/10/30 07:11:14;;;;;;;14.57;9.23;;;;;;;18.88;45.69;101982.47;143726;581;46006;-67
2021/10/30 07:13:51;;;;;;;138.62;20.73;;;;;;;18.89;45.85;101995.03;143726;573;46008;-63
2021/10/30 07:16:31;;;;;;;34.05;10.35;;;;;;;18.94;45.66;101996.03;143727;573;47002;-63
2021/10/30 07:19:08;;;;;;;23.67;8.57;;;;;;;18.97;45.35;101999.37;143727;619;46012;-63
2021/10/30 07:21:50;;;;;;;12.13;7.70;;;;;;;18.98;45.30;102001.88;143726;647;47007;-63
2021/10/30 07:24:29;;;;;;;15.15;8.00;;;;;;;18.98;45.65;101998.31;143726;578;47008;-64
2021/10/30 07:27:07;;;;;;;23.48;15.13;;;;;;;18.94;46.14;101987.03;143727;581;47002;-63
2021/10/30 07:29:45;;;;;;;22.42;14.63;;;;;;;18.93;45.99;101985.34;143725;584;46012;-62
2021/10/30 07:32:23;;;;;;;49.75;15.80;;;;;;;18.92;46.30;101983.69;143727;598;46020;-62
2021/10/30 07:35:01;;;;;;;10.98;8.75;;;;;;;18.93;45.60;101983.44;143723;620;47008;-63
2021/10/30 07:37:39;;;;;;;10.77;8.38;;;;;;;18.98;45.45;101982.81;143729;592;47002;-63
2021/10/30 07:40:16;;;;;;;13.23;9.82;;;;;;;18.90;45.71;101993.97;143728;568;46010;-64
2021/10/30 07:42:53;;;;;;;14.07;9.65;;;;;;;18.88;45.99;101999.66;143726;616;46020;-63
2021/10/30 07:45:30;;;;;;;15.02;8.27;;;;;;;18.84;46.07;101992.97;143726;611;46928;-64
2021/10/30 07:48:10;;;;;;;12.43;7.28;;;;;;;18.74;46.32;101998.06;143728;623;46010;-64
2021/10/30 07:50:47;;;;;;;12.68;6.28;;;;;;;18.63;46.50;102005.06;143725;581;46012;-63
2021/10/30 07:53:26;;;;;;;14.63;6.47;;;;;;;18.52;46.64;102005.78;143727;615;46006;-64
2021/10/30 07:56:03;;;;;;;21.60;7.82;;;;;;;18.48;47.40;102000.78;143725;644;46008;-64
2021/10/30 07:58:42;;;;;;;13.15;6.53;;;;;;;18.49;47.53;102010.59;143728;648;47002;-62
2021/10/30 08:01:19;;;;;;;11.73;6.70;;;;;;;18.53;47.51;102007.44;143726;572;46013;-63
2021/10/30 08:03:59;;;;;;;12.95;6.80;;;;;;;18.49;47.28;102001.62;143727;573;46006;-63
2021/10/30 08:06:36;;;;;;;10.82;6.85;;;;;;;18.49;46.94;102002.44;143724;642;46994;-64
2021/10/30 08:09:15;;;;;;;13.57;7.82;;;;;;;18.57;47.47;102012.22;143726;604;46010;-64
2021/10/30 08:11:50;;;;;;;10.75;7.07;;;;;;;18.60;46.76;102002.81;143724;576;46927;-64
2021/10/30 08:14:27;;;;;;;12.15;7.65;;;;;;;18.62;47.17;102014.31;143724;686;47004;-63
2021/10/30 08:17:07;;;;;;;13.85;8.60;;;;;;;18.67;47.03;102005.47;143725;578;46006;-64
2021/10/30 08:19:45;;;;;;;15.57;8.90;;;;;;;18.57;47.40;101998.63;143725;622;46010;-63
2021/10/30 08:22:24;;;;;;;13.32;8.75;;;;;;;18.57;48.54;102001.34;143724;599;46011;-63
2021/10/30 08:25:00;;;;;;;15.40;10.25;;;;;;;18.49;49.05;102001.62;143725;577;47002;-64
2021/10/30 08:27:37;;;;;;;29.83;20.27;;;;;;;18.48;49.95;102002.69;143724;573;47004;-63
2021/10/30 08:30:17;;;;;;;16.52;12.13;;;;;;;18.40;49.30;101995.63;143723;588;47006;-63
2021/10/30 08:32:52;;;;;;;20.52;11.95;;;;;;;18.32;49.34;101990.44;143722;603;46010;-64
2021/10/30 08:35:32;;;;;;;14.70;10.25;;;;;;;18.30;49.34;101987.94;143723;578;47004;-64
2021/10/30 08:38:09;;;;;;;14.13;9.95;;;;;;;18.35;49.45;101994.62;143725;586;46006;-63
2021/10/30 08:41:03;;;;;;;19.95;11.73;;;;;;;18.44;50.60;101991.38;143727;674;47000;-64
2021/10/30 08:43:41;;;;;;;14.00;10.15;;;;;;;18.53;50.28;101982.97;143723;567;47004;-64
2021/10/30 08:46:18;;;;;;;15.25;10.30;;;;;;;18.57;50.73;101990.44;143723;620;47004;-65
2021/10/30 08:49:01;;;;;;;15.48;11.77;;;;;;;18.60;49.12;101986.47;143724;627;46006;-63
2021/10/30 08:51:40;;;;;;;15.68;10.43;;;;;;;18.60;49.25;101986.47;143727;568;46010;-64
2021/10/30 08:54:17;;;;;;;18.10;11.27;;;;;;;18.63;49.64;101991.44;143723;611;46010;-64
2021/10/30 08:56:56;;;;;;;17.95;10.32;;;;;;;18.66;49.15;101987.47;143724;613;46004;-64
2021/10/30 08:59:51;;;;;;;16.17;11.12;;;;;;;18.66;49.21;101987.47;143726;592;46006;-63
2021/10/30 09:02:34;;;;;;;;;;;;;;;18.60;48.77;101978.31;143731;985;46010;-62
2021/10/30 09:05:25;;;;;;;18.00;10.70;;;;;;;18.62;48.22;101973.50;143729;650;46007;-64
2021/10/30 09:08:11;;;;;;;19.98;14.45;;;;;;;18.66;48.14;101987.47;143724;646;46008;-63
2021/10/30 09:11:18;;;;;;;23.20;14.07;;;;;;;18.64;48.51;101988.53;143724;641;46006;-64
2021/10/30 09:14:08;;;;;;;22.20;14.63;;;;;;;18.61;48.79;101978.09;143725;568;46006;-63
2021/10/30 09:16:46;;;;;;;17.33;13.05;;;;;;;18.63;49.58;101983.28;143725;567;46008;-64
2021/10/30 09:19:39;;;;;;;15.02;10.45;;;;;;;18.61;49.11;101985.44;143724;607;47004;-64
2021/10/30 09:22:19;;;;;;;13.48;8.95;;;;;;;18.61;49.70;101983.53;143723;569;46006;-64
2021/10/30 09:25:22;;;;;;;15.73;10.20;;;;;;;18.66;50.60;101982.03;143729;595;46017;-63
2021/10/30 09:28:05;;;;;;;22.13;13.20;;;;;;;18.65;50.56;101981.19;143724;606;46010;-64
2021/10/30 09:30:47;;;;;;;18.62;13.27;;;;;;;18.64;49.66;101980.38;143723;586;47004;-64
2021/10/30 09:33:22;;;;;;;21.20;12.95;;;;;;;18.69;50.76;101979.69;143726;630;46006;-64
2021/10/30 09:36:03;;;;;;;24.02;12.27;;;;;;;18.69;51.09;101987.84;143726;636;47000;-63
2021/10/30 09:39:02;;;;;;;17.65;11.65;;;;;;;18.68;49.91;101979.94;143725;616;46008;-64
2021/10/30 09:41:53;;;;;;;14.73;11.05;;;;;;;18.68;50.24;101975.31;143724;590;47004;-63
2021/10/30 09:44:35;;;;;;;17.10;11.95;;;;;;;18.67;50.18;101970.09;143725;585;46007;-63
2021/10/30 09:47:23;;;;;;;22.25;13.80;;;;;;;18.68;50.36;101972.59;143726;580;47000;-63
2021/10/30 09:50:02;;;;;;;30.37;14.27;;;;;;;18.72;50.30;101971.09;143724;623;46010;-63
2021/10/30 09:52:42;;;;;;;15.48;13.00;;;;;;;18.71;50.05;101968.59;143725;567;47002;-63
2021/10/30 09:55:28;;;;;;;21.35;13.20;;;;;;;18.67;49.72;101964.66;143726;566;46006;-63
2021/10/30 09:58:16;;;;;;;17.58;13.25;;;;;;;18.72;49.74;101968.38;143727;568;46011;-64
2021/10/30 10:00:53;;;;;;;19.33;14.10;;;;;;;18.72;49.98;101959.34;143726;586;46008;-64
2021/10/30 10:03:33;;;;;;;17.05;12.37;;;;;;;18.73;49.64;101961.87;143724;566;46927;-63
2021/10/30 10:06:07;;;;;;;18.77;13.65;;;;;;;18.77;50.93;101964.97;143725;596;46002;-63
2021/10/30 10:08:44;;;;;;;20.25;14.52;;;;;;;18.79;50.76;101955.53;143727;614;46013;-64
2021/10/30 10:11:24;;;;;;;21.85;14.32;;;;;;;18.79;50.21;101954.69;143724;603;46010;-63
2021/10/30 10:14:02;;;;;;;17.33;13.40;;;;;;;18.78;50.29;101947.59;143726;593;46005;-64
2021/10/30 10:16:40;;;;;;;22.13;14.57;;;;;;;18.80;51.50;101940.03;143725;595;46006;-64
2021/10/30 10:19:19;;;;;;;19.20;15.73;;;;;;;18.80;50.17;101937.31;143728;598;47002;-63
2021/10/30 10:22:02;;;;;;;19.33;15.23;;;;;;;18.79;50.98;101941.09;143723;631;47002;-64
2021/10/30 10:24:40;;;;;;;19.87;16.23;;;;;;;18.80;51.87;101923.69;143724;603;46008;-63
2021/10/30 10:27:18;;;;;;;21.98;18.37;;;;;;;18.82;50.90;101934.34;143723;583;46007;-64
2021/10/30 10:30:02;;;;;;;28.55;19.95;;;;;;;18.80;51.43;101931.87;143728;590;46002;-63
2021/10/30 10:32:40;;;;;;;26.83;21.55;;;;;;;18.73;50.97;101929.22;143722;686;47004;-64
2021/10/30 10:35:20;;;;;;;28.77;21.85;;;;;;;18.68;50.72;101925.50;143725;581;46005;-63
2021/10/30 10:38:00;;;;;;;28.80;21.15;;;;;;;18.71;50.55;101928.59;143724;604;46006;-62
2021/10/30 10:40:41;;;;;;;25.98;19.10;;;;;;;18.76;50.50;101923.31;143726;607;46010;-63
2021/10/30 10:43:59;;;;;;;27.02;17.98;;;;;;;18.83;50.65;101923.25;143727;589;46009;-62
2021/10/30 10:46:34;;;;;;;24.85;16.08;;;;;;;18.84;50.77;101918.63;143723;632;47004;-63
2021/10/30 10:49:44;;;;;;;28.35;19.17;;;;;;;18.85;51.46;101926.59;143728;637;46006;-63
2021/10/30 10:52:29;;;;;;;23.35;14.48;;;;;;;18.85;49.99;101912.13;143727;629;47000;-63
2021/10/30 10:55:15;;;;;;;22.95;14.25;;;;;;;18.90;48.73;101913.12;143727;595;45927;-63
2021/10/30 10:57:54;;;;;;;11.93;8.88;;;;;;;18.90;47.47;101909.56;143725;615;46009;-63
2021/10/30 11:00:32;;;;;;;10.52;8.98;;;;;;;18.86;47.62;101908.34;143724;644;47006;-63
2021/10/30 11:03:08;;;;;;;11.10;9.30;;;;;;;18.84;47.70;101910.47;143727;574;46010;-62
2021/10/30 11:05:44;;;;;;;12.82;9.07;;;;;;;18.93;47.43;101904.50;143721;567;46010;-62
2021/10/30 11:08:36;;;;;;;11.75;9.07;;;;;;;18.90;47.77;101894.06;143724;590;46004;-61
2021/10/30 11:11:27;;;;;;;12.65;9.23;;;;;;;18.90;47.84;101885.06;143724;593;46004;-62
2021/10/30 11:14:14;;;;;;;9.95;7.20;;;;;;;18.95;47.09;101893.44;143726;599;46010;-63
2021/10/30 11:16:53;;;;;;;10.48;8.48;;;;;;;19.00;47.46;101884.59;143722;642;46010;-62
2021/10/30 11:19:38;;;;;;;10.93;7.35;;;;;;;19.05;47.04;101890.19;143722;578;47004;-64
2021/10/30 11:22:16;;;;;;;8.02;7.20;;;;;;;19.05;47.16;101888.28;143724;573;46010;-63
2021/10/30 11:25:01;;;;;;;10.98;7.25;;;;;;;19.08;47.13;101887.84;143727;591;47000;-63
2021/10/30 11:27:50;;;;;;;8.35;7.53;;;;;;;19.16;46.69;101888.56;143724;628;46008;-63
2021/10/30 11:30:37;;;;;;;8.18;7.37;;;;;;;19.18;46.68;101886.47;143724;615;46004;-63
2021/10/30 11:33:29;;;;;;;11.20;8.30;;;;;;;19.13;46.36;101878.97;143725;572;46015;-64
2021/10/30 11:36:12;;;;;;;10.75;7.40;;;;;;;19.14;46.61;101883.38;134712;57;10003202;-63
2021/10/30 11:39:07;;;;;;;9.43;7.82;;;;;;;19.21;46.54;101878.69;143723;567;47000;-63
2021/10/30 11:41:43;;;;;;;10.68;7.97;;;;;;;19.23;45.96;101870.28;143728;573;47000;-63
2021/10/30 11:44:24;;;;;;;7.95;7.12;;;;;;;19.27;45.61;101874.22;143725;569;46008;-62
2021/10/30 11:47:07;;;;;;;8.45;6.93;;;;;;;19.27;45.45;101874.22;143724;578;46004;-63
2021/10/30 11:49:44;;;;;;;13.25;9.43;;;;;;;19.23;46.01;101875.72;143724;577;46007;-63
2021/10/30 11:52:21;;;;;;;16.65;11.75;;;;;;;19.21;46.50;101872.38;143727;572;46006;-63
2021/10/30 11:55:00;;;;;;;12.40;9.65;;;;;;;19.15;46.37;101874.13;143722;590;47002;-62
2021/10/30 11:57:46;;;;;;;11.12;9.10;;;;;;;19.16;46.12;101864.06;143723;569;47004;-62
2021/10/30 12:00:23;;;;;;;13.85;8.05;;;;;;;19.16;45.29;101858.62;143723;594;47006;-63
2021/10/30 12:03:12;;;;;;;13.75;9.80;;;;;;;19.20;45.21;101862.56;143726;573;47000;-63
2021/10/30 12:05:58;;;;;;;16.75;11.27;;;;;;;19.19;46.40;101852.72;143723;581;46010;-63
2021/10/30 12:08:39;;;;;;;15.27;10.35;;;;;;;19.15;47.13;101867.87;143726;576;46004;-63
2021/10/30 12:11:15;;;;;;;12.90;10.32;;;;;;;19.16;46.61;101859.47;143725;573;46006;-63
2021/10/30 12:13:51;;;;;;;16.23;11.63;;;;;;;19.18;46.02;101870.13;143726;626;47000;-63
2021/10/30 12:16:32;;;;;;;15.98;9.90;;;;;;;19.09;47.00;101878.59;143724;576;46010;-66